Time;durP1;ratioP1;P1;durP2;ratioP2;P2;SDS_P1;SDS_P2;PMS_P1;PMS_P2;Temp;Humidity;BMP_temperature;BMP_pressure;BME280_temperature;BME280_humidity;BME280_pressure;Samples;Min_cycle;Max_cycle;Signal;HPM_P1;HPM_P2
2022/04/24 00:00:50;;;;;;;26.70;17.33;;;8.40;99.90;;;;;;4198885;28;20656;-71
2022/04/24 00:02:51;;;;;;;29.63;18.37;;;8.40;99.90;;;;;;4200412;28;20195;-70
2022/04/24 00:04:52;;;;;;;28.00;17.60;;;8.40;99.90;;;;;;4201018;28;20213;-72
2022/04/24 00:06:53;;;;;;;27.60;16.90;;;8.30;99.90;;;;;;4199243;28;20914;-71
2022/04/24 00:08:55;;;;;;;27.77;17.03;;;8.30;99.90;;;;;;4199341;28;20203;-72
2022/04/24 00:10:55;;;;;;;25.27;16.47;;;8.20;99.90;;;;;;4198592;28;20438;-72
2022/04/24 00:12:56;;;;;;;30.13;16.63;;;8.30;99.90;;;;;;4198637;28;20435;-71
2022/04/24 00:14:57;;;;;;;28.13;18.27;;;8.20;99.90;;;;;;4198671;28;20258;-72
2022/04/24 00:16:58;;;;;;;26.73;16.07;;;8.20;99.90;;;;;;4196550;28;20188;-72
2022/04/24 00:18:58;;;;;;;28.47;16.53;;;8.20;99.90;;;;;;4198438;28;20242;-71
2022/04/24 00:20:59;;;;;;;26.87;16.87;;;8.20;99.90;;;;;;4198890;28;20199;-72
2022/04/24 00:23:00;;;;;;;28.00;17.73;;;8.30;99.90;;;;;;4198922;28;20200;-71
2022/04/24 00:25:00;;;;;;;25.77;15.70;;;8.20;99.90;;;;;;4196513;28;20208;-72
2022/04/24 00:27:02;;;;;;;26.60;16.27;;;8.20;99.90;;;;;;4183708;28;20694;-72
2022/04/24 00:29:02;;;;;;;25.90;16.40;;;8.20;99.90;;;;;;4180947;28;20204;-72
2022/04/24 00:31:03;;;;;;;27.33;16.10;;;8.30;99.90;;;;;;4180866;28;20443;-72
2022/04/24 00:33:04;;;;;;;25.40;16.87;;;8.30;99.90;;;;;;4181996;28;20184;-72
2022/04/24 00:35:06;;;;;;;25.53;15.77;;;8.30;99.90;;;;;;4180317;28;20272;-72
2022/04/24 00:37:06;;;;;;;25.87;15.90;;;8.40;99.90;;;;;;4181068;28;20197;-73
2022/04/24 00:39:07;;;;;;;25.93;16.27;;;8.40;99.90;;;;;;4179875;28;20511;-72
2022/04/24 00:41:08;;;;;;;25.33;16.20;;;8.40;99.90;;;;;;4181790;28;20186;-72
2022/04/24 00:43:08;;;;;;;27.00;16.50;;;8.60;99.90;;;;;;4181163;28;20188;-72
2022/04/24 00:45:09;;;;;;;30.17;18.00;;;8.50;99.90;;;;;;4180033;28;20180;-72
2022/04/24 00:47:18;;;;;;;29.90;18.63;;;8.40;99.90;;;;;;4181348;28;20212;-71
2022/04/24 00:49:19;;;;;;;28.27;17.37;;;8.40;99.90;;;;;;4180583;28;20215;-72
2022/04/24 00:51:19;;;;;;;26.47;17.00;;;8.50;99.90;;;;;;4180386;28;20441;-72
2022/04/24 00:53:20;;;;;;;23.10;15.73;;;8.40;99.90;;;;;;4180193;28;20187;-71
2022/04/24 00:55:25;;;;;;;29.07;17.87;;;8.30;99.90;;;;;;4180976;28;20193;-72
2022/04/24 00:57:26;;;;;;;30.40;18.10;;;8.30;99.90;;;;;;4164128;28;20174;-71
2022/04/24 00:59:27;;;;;;;29.80;18.93;;;8.40;99.90;;;;;;4180521;28;20474;-72
2022/04/24 01:01:28;;;;;;;29.53;19.03;;;8.50;99.90;;;;;;4179971;28;20264;-72
2022/04/24 01:03:28;;;;;;;28.53;17.27;;;8.50;99.90;;;;;;4180372;28;20176;-72
2022/04/24 01:05:29;;;;;;;31.00;20.57;;;8.60;99.90;;;;;;4179641;28;20176;-73
2022/04/24 01:07:30;;;;;;;33.97;19.13;;;8.60;99.90;;;;;;4180278;28;20306;-71
2022/04/24 01:09:35;;;;;;;38.93;21.23;;;8.70;99.90;;;;;;4181664;28;20189;-71
2022/04/24 01:11:36;;;;;;;36.90;21.43;;;8.70;99.90;;;;;;4177862;28;20185;-72
2022/04/24 01:13:36;;;;;;;42.20;21.80;;;8.60;99.90;;;;;;4178692;28;20431;-72
2022/04/24 01:15:37;;;;;;;42.17;22.10;;;8.60;99.90;;;;;;4183106;28;20803;-72
2022/04/24 01:17:38;;;;;;;36.83;20.33;;;8.60;99.90;;;;;;4195057;28;20618;-71
2022/04/24 01:19:39;;;;;;;39.07;21.33;;;8.60;99.90;;;;;;4193865;28;20234;-72
2022/04/24 01:21:42;;;;;;;38.33;22.53;;;8.60;99.90;;;;;;4195664;28;20426;-74
2022/04/24 01:23:43;;;;;;;32.40;18.90;;;8.60;99.90;;;;;;4194702;28;20193;-71
2022/04/24 01:25:44;;;;;;;38.90;20.83;;;8.60;99.90;;;;;;4195958;28;20442;-71
2022/04/24 01:27:44;;;;;;;40.53;21.77;;;8.60;99.90;;;;;;4194146;28;20193;-71
2022/04/24 01:29:45;;;;;;;40.03;22.27;;;8.60;99.90;;;;;;4195377;28;20222;-72
2022/04/24 01:31:50;;;;;;;37.30;19.67;;;8.50;99.90;;;;;;4195255;28;20632;-72
2022/04/24 01:33:51;;;;;;;38.53;23.07;;;8.50;99.90;;;;;;4193913;28;20185;-72
2022/04/24 01:35:51;;;;;;;44.20;22.67;;;8.50;99.90;;;;;;4194486;28;20449;-72
2022/04/24 01:37:55;;;;;;;44.77;24.83;;;8.40;99.90;;;;;;4193859;28;20201;-72
2022/04/24 01:39:56;;;;;;;42.70;24.33;;;8.50;99.90;;;;;;4195266;28;20293;-72
2022/04/24 01:41:57;;;;;;;43.03;24.20;;;8.60;99.90;;;;;;4194954;28;20426;-71
2022/04/24 01:43:59;;;;;;;44.77;24.13;;;8.50;99.90;;;;;;4193626;28;20420;-72
2022/04/24 01:46:00;;;;;;;39.93;22.27;;;8.50;99.90;;;;;;4194213;28;20541;-71
2022/04/24 01:48:00;;;;;;;46.30;24.20;;;8.50;99.90;;;;;;4195053;28;20441;-71
2022/04/24 01:50:01;;;;;;;37.43;22.03;;;8.50;99.90;;;;;;4194748;28;20666;-71
2022/04/24 01:52:02;;;;;;;42.10;23.57;;;8.50;99.90;;;;;;4194818;28;20706;-72
2022/04/24 01:54:02;;;;;;;65.87;29.40;;;8.60;99.90;;;;;;4193736;28;20893;-71
2022/04/24 01:56:05;;;;;;;56.93;26.17;;;8.50;99.90;;;;;;4194590;28;20184;-71
2022/04/24 01:58:06;;;;;;;55.53;27.30;;;8.50;99.90;;;;;;4193475;28;20219;-71
2022/04/24 02:00:07;;;;;;;46.57;23.27;;;8.60;99.90;;;;;;4194786;28;20492;-71
2022/04/24 02:02:08;;;;;;;44.53;23.30;;;8.70;99.90;;;;;;4194807;28;20178;-72
2022/04/24 02:04:08;;;;;;;39.07;23.07;;;8.70;99.90;;;;;;4193550;28;20412;-71
2022/04/24 02:06:09;;;;;;;42.40;21.97;;;8.70;99.90;;;;;;4194523;28;20267;-72
2022/04/24 02:08:10;;;;;;;36.83;20.77;;;8.60;99.90;;;;;;4196482;28;20211;-72
2022/04/24 02:10:10;;;;;;;32.87;19.13;;;8.60;99.90;;;;;;4196790;28;20219;-72
2022/04/24 02:12:11;;;;;;;31.17;18.20;;;8.80;99.90;;;;;;4196740;28;20185;-72
2022/04/24 02:14:12;;;;;;;35.50;19.00;;;8.60;99.90;;;;;;4197759;28;20177;-72
2022/04/24 02:16:12;;;;;;;23.10;14.57;;;8.50;99.90;;;;;;4197026;28;20259;-72
2022/04/24 02:18:13;;;;;;;14.73;9.27;;;8.40;99.90;;;;;;4197053;28;20646;-72
2022/04/24 02:20:14;;;;;;;10.87;6.77;;;8.40;99.90;;;;;;4185827;28;20202;-72
2022/04/24 02:22:14;;;;;;;9.83;6.73;;;8.20;99.90;;;;;;4180835;28;20177;-72
2022/04/24 02:24:15;;;;;;;12.20;5.23;;;8.10;99.90;;;;;;4179735;28;20197;-72
2022/04/24 02:26:16;;;;;;;7.27;5.13;;;8.00;99.90;;;;;;4178838;28;20242;-72
2022/04/24 02:28:17;;;;;;;6.67;4.67;;;7.80;99.90;;;;;;4180859;28;20210;-72
2022/04/24 02:30:18;;;;;;;5.40;3.57;;;7.60;99.90;;;;;;4179528;28;20207;-72
2022/04/24 02:32:18;;;;;;;3.90;2.80;;;7.50;99.90;;;;;;4180714;28;20223;-72
2022/04/24 02:34:19;;;;;;;4.27;3.17;;;7.40;99.90;;;;;;4180893;28;20185;-72
2022/04/24 02:36:20;;;;;;;3.27;2.67;;;7.30;99.90;;;;;;4178995;28;20727;-71
2022/04/24 02:38:21;;;;;;;2.60;2.00;;;7.20;99.90;;;;;;4180499;28;20702;-71
2022/04/24 02:40:22;;;;;;;2.70;2.20;;;7.20;99.90;;;;;;4180579;28;20265;-72
2022/04/24 02:42:22;;;;;;;4.83;2.27;;;7.10;99.90;;;;;;4179059;28;20435;-71
2022/04/24 02:44:23;;;;;;;3.20;2.00;;;7.10;99.90;;;;;;4179290;28;20220;-71
2022/04/24 02:46:23;;;;;;;4.10;2.03;;;7.10;99.90;;;;;;4178561;28;20184;-72
2022/04/24 02:48:27;;;;;;;1.50;1.37;;;7.00;99.90;;;;;;4180397;28;20236;-71
2022/04/24 02:50:28;;;;;;;3.13;1.07;;;6.90;99.90;;;;;;4180381;28;20924;-71
2022/04/24 02:52:28;;;;;;;1.40;0.80;;;6.90;99.90;;;;;;4178204;28;20423;-71
2022/04/24 02:54:29;;;;;;;1.00;0.90;;;6.70;99.90;;;;;;4185766;28;20240;-71
2022/04/24 02:56:30;;;;;;;0.77;0.70;;;6.60;99.90;;;;;;4194743;28;20547;-70
2022/04/24 02:58:30;;;;;;;0.57;0.57;;;6.40;99.90;;;;;;4196622;28;20990;-71
2022/04/24 03:00:43;;;;;;;0.40;0.40;;;6.30;99.90;;;;;;4195423;28;20190;-70
2022/04/24 03:02:44;;;;;;;0.20;0.20;;;6.10;99.90;;;;;;4196798;28;20706;-71
2022/04/24 03:04:46;;;;;;;1.50;0.40;;;6.00;99.90;;;;;;4196628;28;20963;-70
2022/04/24 03:06:46;;;;;;;0.73;0.40;;;6.00;99.90;;;;;;4196059;28;21229;-71
2022/04/24 03:08:47;;;;;;;0.67;0.30;;;5.90;99.90;;;;;;4197038;28;20480;-71
2022/04/24 03:10:48;;;;;;;0.30;0.30;;;5.80;99.90;;;;;;4195486;28;20183;-71
2022/04/24 03:12:49;;;;;;;0.47;0.40;;;5.80;99.90;;;;;;4195458;28;20471;-71
2022/04/24 03:14:49;;;;;;;0.63;0.30;;;5.70;99.90;;;;;;4196590;28;20218;-71
2022/04/24 03:16:50;;;;;;;0.77;0.20;;;5.50;99.90;;;;;;4194211;28;20217;-71
2022/04/24 03:18:51;;;;;;;0.20;0.20;;;5.40;99.90;;;;;;4196575;28;20590;-71
2022/04/24 03:20:52;;;;;;;1.13;0.30;;;5.30;99.90;;;;;;4196014;28;20270;-71
2022/04/24 03:22:53;;;;;;;0.67;0.30;;;5.30;99.90;;;;;;4195410;28;21027;-71
2022/04/24 03:24:53;;;;;;;0.83;0.30;;;5.30;99.90;;;;;;4196691;28;20582;-71
2022/04/24 03:26:54;;;;;;;0.20;0.20;;;5.30;99.90;;;;;;4195626;28;20234;-71
2022/04/24 03:28:56;;;;;;;0.90;0.30;;;5.20;99.90;;;;;;4196547;28;20229;-71
2022/04/24 03:30:57;;;;;;;1.33;0.40;;;5.10;99.90;;;;;;4196290;28;20179;-71
2022/04/24 03:32:58;;;;;;;0.33;0.20;;;5.10;99.90;;;;;;4196282;28;20430;-71
2022/04/24 03:35:00;;;;;;;1.10;0.13;;;5.00;99.90;;;;;;4196199;28;20189;-71
2022/04/24 03:37:00;;;;;;;0.30;0.30;;;5.00;99.90;;;;;;4194397;28;20220;-71
2022/04/24 03:39:01;;;;;;;1.07;0.20;;;5.00;99.90;;;;;;4196015;28;20913;-71
2022/04/24 03:41:01;;;;;;;0.27;0.20;;;5.00;99.90;;;;;;4196051;28;20533;-71
2022/04/24 03:43:02;;;;;;;0.40;0.20;;;4.90;99.90;;;;;;4195997;28;20206;-71
2022/04/24 03:45:06;;;;;;;0.87;0.20;;;4.90;99.90;;;;;;4195663;28;20178;-70
2022/04/24 03:47:08;;;;;;;0.23;0.23;;;4.90;99.90;;;;;;4194318;28;20576;-71
2022/04/24 03:49:09;;;;;;;0.23;0.23;;;4.90;99.90;;;;;;4194539;28;20476;-71
2022/04/24 03:51:10;;;;;;;1.03;0.30;;;5.00;99.90;;;;;;4195859;28;20424;-71
2022/04/24 03:53:12;;;;;;;0.43;0.30;;;5.00;99.90;;;;;;4195882;28;20197;-71
2022/04/24 03:55:13;;;;;;;0.20;0.20;;;4.90;99.90;;;;;;4195473;28;20920;-69
2022/04/24 03:57:14;;;;;;;1.70;0.10;;;4.90;99.90;;;;;;4195396;28;20481;-71
2022/04/24 03:59:15;;;;;;;0.20;0.20;;;4.90;99.90;;;;;;4194301;28;20555;-70
2022/04/24 04:01:15;;;;;;;2.00;0.20;;;4.80;99.90;;;;;;4194419;28;20210;-70
2022/04/24 04:03:16;;;;;;;0.20;0.20;;;4.70;99.90;;;;;;4195682;28;20185;-70
2022/04/24 04:05:17;;;;;;;0.10;0.10;;;4.70;99.90;;;;;;4195566;28;20183;-70
2022/04/24 04:07:18;;;;;;;0.20;0.20;;;4.60;99.90;;;;;;4194182;28;20179;-70
2022/04/24 04:09:19;;;;;;;0.40;0.20;;;4.50;99.90;;;;;;4195729;28;20233;-70
2022/04/24 04:11:20;;;;;;;0.47;0.20;;;4.50;99.90;;;;;;4196040;28;20544;-72
2022/04/24 04:13:20;;;;;;;0.93;0.40;;;4.50;99.90;;;;;;4194518;28;20429;-71
2022/04/24 04:15:21;;;;;;;0.27;0.10;;;4.40;99.90;;;;;;4195454;28;20181;-70
2022/04/24 04:17:22;;;;;;;0.10;0.10;;;4.40;99.90;;;;;;4195985;28;20209;-71
2022/04/24 04:19:23;;;;;;;0.10;0.10;;;4.40;99.90;;;;;;4195530;28;20627;-70
2022/04/24 04:21:23;;;;;;;0.10;0.10;;;4.40;99.90;;;;;;4177730;28;20783;-70
2022/04/24 04:23:24;;;;;;;0.10;0.10;;;4.40;99.90;;;;;;4195433;28;20281;-70
2022/04/24 04:25:25;;;;;;;0.20;0.20;;;4.50;99.90;;;;;;4195002;28;20183;-70
2022/04/24 04:27:26;;;;;;;0.20;0.20;;;4.50;99.90;;;;;;4181579;28;20283;-70
2022/04/24 04:29:27;;;;;;;0.10;0.10;;;4.40;99.90;;;;;;4178966;28;20868;-70
2022/04/24 04:31:27;;;;;;;0.20;0.20;;;4.50;99.90;;;;;;4178748;28;20177;-69
2022/04/24 04:33:28;;;;;;;0.13;0.13;;;4.50;99.90;;;;;;4177558;28;20199;-72
2022/04/24 04:35:29;;;;;;;0.20;0.20;;;4.50;99.90;;;;;;4178631;28;20202;-72
2022/04/24 04:37:29;;;;;;;0.10;0.10;;;4.50;99.90;;;;;;4177364;28;20186;-70
2022/04/24 04:39:30;;;;;;;0.20;0.20;;;4.60;99.90;;;;;;4177236;28;20241;-72
2022/04/24 04:41:31;;;;;;;0.20;0.20;;;4.60;99.90;;;;;;4178479;28;20194;-71
2022/04/24 04:43:31;;;;;;;0.10;0.10;;;4.60;99.90;;;;;;4178626;28;20213;-71
2022/04/24 04:45:32;;;;;;;0.20;0.20;;;4.60;99.90;;;;;;4159970;28;20773;-72
2022/04/24 04:47:33;;;;;;;0.33;0.17;;;4.60;99.90;;;;;;4178389;28;20189;-72
2022/04/24 04:49:34;;;;;;;0.83;0.10;;;4.70;99.90;;;;;;4177710;28;20187;-72
2022/04/24 04:51:35;;;;;;;0.30;0.30;;;4.70;99.90;;;;;;4177179;28;20191;-72
2022/04/24 04:53:36;;;;;;;0.20;0.20;;;4.70;99.90;;;;;;4177122;28;20185;-72
2022/04/24 04:55:36;;;;;;;0.20;0.20;;;4.80;99.90;;;;;;4177770;28;20440;-72
2022/04/24 04:57:37;;;;;;;0.20;0.20;;;4.70;99.90;;;;;;4177083;28;20215;-71
2022/04/24 04:59:38;;;;;;;0.13;0.13;;;4.70;99.90;;;;;;4177279;28;20313;-71
2022/04/24 05:01:38;;;;;;;0.20;0.20;;;4.70;99.90;;;;;;4178572;28;20183;-71
2022/04/24 05:03:39;;;;;;;0.47;0.20;;;4.70;99.90;;;;;;4177294;28;20183;-71
2022/04/24 05:05:40;;;;;;;0.27;0.27;;;4.80;99.90;;;;;;4177975;28;20185;-71
2022/04/24 05:07:41;;;;;;;0.20;0.20;;;4.80;99.90;;;;;;4178140;28;20993;-71
2022/04/24 05:09:41;;;;;;;0.30;0.30;;;4.80;99.90;;;;;;4187821;28;20197;-71
2022/04/24 05:11:42;;;;;;;0.20;0.20;;;4.70;99.90;;;;;;4193512;28;20190;-71
2022/04/24 05:13:42;;;;;;;0.40;0.40;;;4.70;99.90;;;;;;4194943;28;20189;-71
2022/04/24 05:15:43;;;;;;;2.57;1.60;;;4.70;99.90;;;;;;4194275;28;20271;-71
2022/04/24 05:17:44;;;;;;;1.20;0.90;;;4.70;99.90;;;;;;4194751;28;20260;-71
2022/04/24 05:19:44;;;;;;;8.73;4.13;;;4.70;99.90;;;;;;4193515;28;20221;-70
2022/04/24 05:21:45;;;;;;;1.10;0.97;;;4.80;99.90;;;;;;4193220;28;20217;-71
2022/04/24 05:23:48;;;;;;;0.30;0.30;;;4.90;99.90;;;;;;4194805;28;20187;-71
2022/04/24 05:25:49;;;;;;;8.90;3.40;;;4.90;99.90;;;;;;4194032;28;20264;-71
2022/04/24 05:27:50;;;;;;;6.57;2.90;;;5.00;99.90;;;;;;4194723;28;20452;-71
2022/04/24 05:29:50;;;;;;;2.50;1.40;;;5.00;99.90;;;;;;4194816;28;20444;-71
2022/04/24 05:31:51;;;;;;;0.37;0.33;;;5.00;99.90;;;;;;4193420;28;20553;-71
2022/04/24 05:33:51;;;;;;;0.60;0.60;;;4.90;99.90;;;;;;4194588;28;20186;-71
2022/04/24 05:35:52;;;;;;;1.33;0.97;;;5.00;99.90;;;;;;4192779;28;20372;-71
2022/04/24 05:37:53;;;;;;;0.60;0.50;;;5.00;99.90;;;;;;4194441;28;20577;-71
2022/04/24 05:39:54;;;;;;;0.80;0.70;;;5.00;99.90;;;;;;4193379;28;20189;-71
2022/04/24 05:41:54;;;;;;;1.80;1.00;;;5.00;99.90;;;;;;4194570;28;20186;-71
2022/04/24 05:43:55;;;;;;;0.50;0.50;;;5.00;99.90;;;;;;4196709;28;20224;-71
2022/04/24 05:45:56;;;;;;;2.70;1.57;;;5.00;99.90;;;;;;4197144;28;20260;-71
2022/04/24 05:47:56;;;;;;;1.10;1.00;;;5.10;99.90;;;;;;4179776;28;20589;-71
2022/04/24 05:49:57;;;;;;;1.43;0.70;;;5.20;99.90;;;;;;4197726;28;20428;-71
2022/04/24 05:51:58;;;;;;;0.73;0.63;;;5.20;99.90;;;;;;4196310;28;20221;-71
2022/04/24 05:53:58;;;;;;;0.43;0.43;;;5.20;99.90;;;;;;4197577;28;20182;-71
2022/04/24 05:55:59;;;;;;;0.40;0.40;;;5.20;99.90;;;;;;4196982;28;20179;-71
2022/04/24 05:58:00;;;;;;;0.50;0.50;;;5.30;99.90;;;;;;4197555;28;20230;-71
2022/04/24 06:00:00;;;;;;;0.57;0.50;;;5.30;99.90;;;;;;4197551;28;20228;-71
2022/04/24 06:02:01;;;;;;;1.67;0.80;;;5.40;99.90;;;;;;4197587;28;20276;-71
2022/04/24 06:04:02;;;;;;;2.10;2.00;;;5.40;99.90;;;;;;4196240;28;20706;-71
2022/04/24 06:06:03;;;;;;;0.40;0.40;;;5.40;99.90;;;;;;4195598;28;20669;-71
2022/04/24 06:08:04;;;;;;;0.80;0.80;;;5.40;99.90;;;;;;4197624;28;20210;-72
2022/04/24 06:10:05;;;;;;;12.30;11.33;;;5.40;99.90;;;;;;4196144;28;20269;-71
2022/04/24 06:12:07;;;;;;;5.33;4.93;;;5.40;99.90;;;;;;4197227;28;20432;-72
2022/04/24 06:14:08;;;;;;;5.40;5.03;;;5.50;99.90;;;;;;4197327;28;20440;-72
2022/04/24 06:16:08;;;;;;;2.40;2.30;;;5.50;99.90;;;;;;4195475;28;20424;-72
2022/04/24 06:18:09;;;;;;;2.40;2.20;;;5.60;99.90;;;;;;4197275;28;20221;-72
2022/04/24 06:20:10;;;;;;;0.80;0.80;;;5.80;99.90;;;;;;4197258;28;20202;-71
2022/04/24 06:22:11;;;;;;;0.80;0.70;;;5.80;99.90;;;;;;4196110;28;20193;-72
2022/04/24 06:24:11;;;;;;;2.23;2.03;;;5.90;99.90;;;;;;4182716;28;20925;-70
2022/04/24 06:26:12;;;;;;;0.60;0.60;;;6.00;99.90;;;;;;4180179;28;20646;-72
2022/04/24 06:28:13;;;;;;;0.70;0.67;;;6.10;99.90;;;;;;4179539;28;20238;-71
2022/04/24 06:30:16;;;;;;;1.87;0.80;;;6.10;99.90;;;;;;4179515;28;20192;-71
2022/04/24 06:32:17;;;;;;;1.03;0.60;;;6.00;99.90;;;;;;4179289;28;20430;-72
2022/04/24 06:34:17;;;;;;;0.70;0.60;;;6.00;99.90;;;;;;4179517;28;20474;-72
2022/04/24 06:36:18;;;;;;;0.60;0.60;;;6.00;99.90;;;;;;4178998;28;20193;-72
2022/04/24 06:38:21;;;;;;;0.60;0.60;;;6.10;99.90;;;;;;4180440;28;20273;-72
2022/04/24 06:40:24;;;;;;;1.00;0.40;;;6.10;99.90;;;;;;4180463;28;20937;-71
2022/04/24 06:42:25;;;;;;;0.60;0.60;;;6.20;99.90;;;;;;4180558;28;20466;-72
2022/04/24 06:44:25;;;;;;;0.60;0.60;;;6.30;99.90;;;;;;4180339;28;20964;-72
2022/04/24 06:46:26;;;;;;;0.60;0.60;;;6.30;99.90;;;;;;4179779;28;20653;-72
2022/04/24 06:48:27;;;;;;;0.50;0.50;;;6.30;99.90;;;;;;4179010;28;20215;-72
2022/04/24 06:50:29;;;;;;;0.40;0.40;;;6.50;99.90;;;;;;4178956;28;20211;-72
2022/04/24 06:52:29;;;;;;;0.50;0.40;;;6.30;99.90;;;;;;4180358;28;20272;-72
2022/04/24 06:54:30;;;;;;;0.40;0.40;;;6.40;99.90;;;;;;4180040;28;20468;-72
2022/04/24 06:56:31;;;;;;;0.70;0.60;;;6.40;99.90;;;;;;4178330;28;20194;-72
2022/04/24 06:58:32;;;;;;;0.20;0.20;;;6.40;99.90;;;;;;4178863;28;20247;-72
2022/04/24 07:00:37;;;;;;;0.30;0.30;;;6.50;99.90;;;;;;4180363;28;20188;-72
2022/04/24 07:02:39;;;;;;;0.30;0.30;;;6.50;99.90;;;;;;4178622;28;20202;-72
2022/04/24 07:04:40;;;;;;;0.30;0.30;;;6.50;99.90;;;;;;4180073;28;20422;-72
2022/04/24 07:06:41;;;;;;;0.30;0.30;;;6.50;99.90;;;;;;4177917;28;20955;-72
2022/04/24 07:08:41;;;;;;;0.60;0.60;;;6.60;99.90;;;;;;4179902;28;20227;-72
2022/04/24 07:10:42;;;;;;;0.40;0.40;;;6.70;99.90;;;;;;4179774;28;20187;-72
2022/04/24 07:12:53;;;;;;;0.30;0.30;;;6.80;99.90;;;;;;4196092;28;20245;-72
2022/04/24 07:14:54;;;;;;;0.90;0.60;;;6.90;99.90;;;;;;4195085;28;20612;-72
2022/04/24 07:16:54;;;;;;;0.90;0.70;;;7.00;99.90;;;;;;4195433;28;20498;-72
2022/04/24 07:18:55;;;;;;;0.57;0.40;;;7.00;99.90;;;;;;4195842;28;20227;-72
2022/04/24 07:20:57;;;;;;;0.30;0.30;;;7.10;99.90;;;;;;4196308;28;20179;-72
2022/04/24 07:23:05;;;;;;;0.70;0.60;;;7.10;99.90;;;;;;4194981;28;20211;-72
2022/04/24 07:25:06;;;;;;;0.50;0.30;;;7.10;99.90;;;;;;4194794;28;20425;-72
2022/04/24 07:27:06;;;;;;;0.40;0.40;;;7.10;99.90;;;;;;4195920;28;20438;-72
2022/04/24 07:29:07;;;;;;;0.60;0.60;;;7.30;99.60;;;;;;4196095;28;20207;-72
2022/04/24 07:31:08;;;;;;;1.10;0.90;;;7.30;99.90;;;;;;4194770;28;20222;-72
2022/04/24 07:33:08;;;;;;;0.67;0.67;;;7.50;99.30;;;;;;4196108;28;20186;-72
2022/04/24 07:35:12;;;;;;;1.80;1.27;;;7.50;98.30;;;;;;4195940;28;20190;-72
2022/04/24 07:37:13;;;;;;;1.87;1.00;;;7.50;98.40;;;;;;4194374;28;20184;-71
2022/04/24 07:39:14;;;;;;;2.57;1.03;;;7.40;98.80;;;;;;4195861;28;20979;-72
2022/04/24 07:41:14;;;;;;;1.90;1.10;;;7.40;98.90;;;;;;4195943;28;20180;-72
2022/04/24 07:43:15;;;;;;;2.53;1.53;;;7.40;99.90;;;;;;4195888;28;20437;-70
2022/04/24 07:45:22;;;;;;;0.80;0.60;;;7.50;98.80;;;;;;4195520;28;20192;-70
2022/04/24 07:47:23;;;;;;;0.50;0.40;;;7.40;99.30;;;;;;4194504;28;20245;-71
2022/04/24 07:49:24;;;;;;;0.40;0.40;;;7.50;97.50;;;;;;4195869;28;20916;-71
2022/04/24 07:51:25;;;;;;;0.30;0.30;;;7.40;97.70;;;;;;4195750;28;20197;-70
2022/04/24 07:53:25;;;;;;;0.67;0.50;;;7.30;98.70;;;;;;4194592;28;20263;-70
2022/04/24 07:55:26;;;;;;;0.50;0.50;;;7.40;98.80;;;;;;4195320;28;20219;-70
2022/04/24 07:57:27;;;;;;;0.97;0.50;;;7.60;98.90;;;;;;4194500;28;20233;-70
2022/04/24 07:59:27;;;;;;;0.80;0.63;;;7.70;97.90;;;;;;4195748;28;20209;-71
2022/04/24 08:01:28;;;;;;;0.40;0.40;;;7.90;98.20;;;;;;4192577;28;20209;-71
2022/04/24 08:03:29;;;;;;;0.50;0.40;;;7.90;96.20;;;;;;4181744;28;20218;-71
2022/04/24 08:05:35;;;;;;;0.60;0.40;;;7.80;97.70;;;;;;4176960;28;20234;-70
2022/04/24 08:07:35;;;;;;;0.50;0.50;;;7.80;97.50;;;;;;4179369;28;20195;-71
2022/04/24 08:09:36;;;;;;;0.37;0.37;;;7.80;98.50;;;;;;4179315;28;20431;-70
2022/04/24 08:11:36;;;;;;;0.50;0.50;;;7.80;98.50;;;;;;4179027;28;20542;-70
2022/04/24 08:13:37;;;;;;;0.43;0.43;;;7.80;98.20;;;;;;4178813;28;20671;-70
2022/04/24 08:15:38;;;;;;;0.57;0.57;;;7.70;97.30;;;;;;4178316;28;20525;-70
2022/04/24 08:17:39;;;;;;;1.13;0.40;;;7.60;99.20;;;;;;4178647;28;20228;-70
2022/04/24 08:19:39;;;;;;;1.33;0.60;;;7.80;99.00;;;;;;4177450;28;20214;-71
2022/04/24 08:21:40;;;;;;;0.40;0.40;;;7.80;97.80;;;;;;4178793;28;20208;-71
2022/04/24 08:23:40;;;;;;;0.50;0.43;;;7.80;98.30;;;;;;4191537;28;20184;-71
2022/04/24 08:25:41;;;;;;;0.80;0.67;;;8.10;96.90;;;;;;4194725;28;20192;-70
2022/04/24 08:27:42;;;;;;;0.60;0.60;;;8.20;96.80;;;;;;4193812;28;20183;-71
2022/04/24 08:29:43;;;;;;;0.60;0.50;;;7.90;95.10;;;;;;4193947;28;20650;-71
2022/04/24 08:31:44;;;;;;;0.50;0.50;;;8.00;95.40;;;;;;4195275;28;20432;-70
2022/04/24 08:33:44;;;;;;;0.40;0.40;;;7.90;95.70;;;;;;4195201;28;20180;-72
2022/04/24 08:35:46;;;;;;;0.40;0.40;;;7.80;96.00;;;;;;4194442;28;20189;-72
2022/04/24 08:37:48;;;;;;;0.40;0.40;;;7.70;96.60;;;;;;4195133;28;20200;-72
2022/04/24 08:39:49;;;;;;;0.83;0.83;;;7.80;98.10;;;;;;4193760;28;20640;-72
2022/04/24 08:41:50;;;;;;;1.60;0.80;;;7.90;96.20;;;;;;4195222;28;20421;-71
2022/04/24 08:43:51;;;;;;;0.50;0.50;;;7.60;96.80;;;;;;4195318;28;20642;-72
2022/04/24 08:45:53;;;;;;;0.63;0.50;;;7.60;97.80;;;;;;4193337;28;20177;-72
2022/04/24 08:47:55;;;;;;;1.00;0.50;;;7.70;97.50;;;;;;4194970;28;20455;-72
2022/04/24 08:49:59;;;;;;;0.60;0.40;;;7.50;97.40;;;;;;4193811;28;21238;-71
2022/04/24 08:52:01;;;;;;;0.60;0.60;;;7.60;97.20;;;;;;4193683;28;20459;-72
2022/04/24 08:54:02;;;;;;;0.40;0.40;;;7.80;97.00;;;;;;4190017;28;20472;-72
2022/04/24 08:56:03;;;;;;;1.23;0.83;;;7.90;96.10;;;;;;4198587;28;20453;-74
2022/04/24 08:58:04;;;;;;;0.83;0.57;;;7.80;95.70;;;;;;4193232;28;20454;-71
2022/04/24 09:00:08;;;;;;;1.37;0.80;;;7.80;96.70;;;;;;4200136;28;20486;-73
2022/04/24 09:02:09;;;;;;;2.20;0.80;;;7.90;97.20;;;;;;4205120;28;20184;-72
2022/04/24 09:04:10;;;;;;;1.73;1.03;;;8.10;96.80;;;;;;4199725;28;20495;-72
2022/04/24 09:06:24;;;;;;;1.37;0.80;;;8.20;96.60;;;;;;4202333;28;20972;-72
2022/04/24 09:08:24;;;;;;;1.83;1.07;;;8.00;95.80;;;;;;4193673;28;20261;-73
2022/04/24 09:10:25;;;;;;;2.00;0.80;;;8.00;96.20;;;;;;4201644;28;20873;-75
2022/04/24 09:12:28;;;;;;;2.47;1.10;;;8.00;96.50;;;;;;4202381;28;20246;-73
2022/04/24 09:14:30;;;;;;;3.10;0.83;;;8.00;96.80;;;;;;4202373;28;20601;-73
2022/04/24 09:16:37;;;;;;;3.53;1.10;;;8.00;97.10;;;;;;4201103;28;20517;-73
2022/04/24 09:18:39;;;;;;;0.60;0.50;;;8.00;97.90;;;;;;4206669;28;20472;-73
2022/04/24 09:20:43;;;;;;;1.07;0.57;;;8.30;95.70;;;;;;4203654;28;20431;-73
2022/04/24 09:22:45;;;;;;;0.70;0.50;;;8.10;97.30;;;;;;4207738;28;20425;-73
2022/04/24 09:24:49;;;;;;;2.30;0.90;;;8.20;96.80;;;;;;4202920;28;20188;-73
2022/04/24 09:26:55;;;;;;;1.97;0.70;;;8.30;96.30;;;;;;4209024;28;20849;-73
2022/04/24 09:28:56;;;;;;;0.60;0.50;;;8.50;94.70;;;;;;4200155;28;21036;-75
2022/04/24 09:31:03;;;;;;;0.80;0.50;;;8.40;94.70;;;;;;4210640;28;20286;-74
2022/04/24 09:33:07;;;;;;;0.80;0.70;;;8.40;95.20;;;;;;4200154;28;20201;-74
2022/04/24 09:35:08;;;;;;;1.90;0.90;;;8.30;95.00;;;;;;4211914;28;20190;-73
2022/04/24 09:37:09;;;;;;;2.87;1.93;;;8.00;96.00;;;;;;4199387;28;20196;-73
2022/04/24 09:39:10;;;;;;;1.03;0.70;;;8.20;95.80;;;;;;4212120;28;20696;-73
2022/04/24 09:41:20;;;;;;;1.40;1.00;;;8.30;95.30;;;;;;4199354;28;20189;-73
2022/04/24 09:43:21;;;;;;;1.00;0.80;;;8.10;96.90;;;;;;4212622;28;20184;-73
2022/04/24 09:45:25;;;;;;;0.73;0.50;;;8.00;96.10;;;;;;4195623;28;20439;-72
2022/04/24 09:47:26;;;;;;;0.87;0.50;;;8.10;96.80;;;;;;4180554;28;20184;-73
2022/04/24 09:49:28;;;;;;;0.40;0.40;;;8.20;95.60;;;;;;4212649;28;20862;-74
2022/04/24 09:51:28;;;;;;;0.93;0.63;;;8.10;95.20;;;;;;4196693;28;20524;-72
2022/04/24 09:53:31;;;;;;;1.07;0.93;;;8.10;96.20;;;;;;4213152;28;20424;-73
2022/04/24 09:55:34;;;;;;;0.70;0.60;;;8.10;96.20;;;;;;4179897;28;20647;-74
2022/04/24 09:57:36;;;;;;;0.67;0.37;;;8.20;97.10;;;;;;4211017;28;20526;-74
2022/04/24 09:59:43;;;;;;;0.97;0.70;;;8.10;94.80;;;;;;4197657;28;20217;-74
2022/04/24 10:01:45;;;;;;;0.40;0.40;;;8.10;95.30;;;;;;4210876;28;20936;-73
2022/04/24 10:03:46;;;;;;;1.30;0.80;;;8.10;96.80;;;;;;4198861;28;20210;-75
2022/04/24 10:05:48;;;;;;;0.40;0.40;;;7.90;96.60;;;;;;4208624;28;20497;-74
2022/04/24 10:07:50;;;;;;;0.40;0.40;;;7.90;97.60;;;;;;4199100;28;20195;-74
2022/04/24 10:09:51;;;;;;;0.90;0.73;;;8.10;97.10;;;;;;4191775;28;20439;-74
2022/04/24 10:11:52;;;;;;;1.07;0.60;;;8.30;97.90;;;;;;4199358;28;20570;-74
2022/04/24 10:14:01;;;;;;;0.40;0.40;;;8.30;95.90;;;;;;4208312;28;20264;-74
2022/04/24 10:16:35;;;;;;;0.37;0.37;;;8.30;95.20;;;;;;4200196;28;20431;-76
2022/04/24 10:18:47;;;;;;;0.80;0.50;;;8.10;94.80;;;;;;4203215;28;20471;-74
2022/04/24 10:21:19;;;;;;;0.73;0.40;;;8.10;96.30;;;;;;4207196;28;20917;-74
2022/04/24 10:23:36;;;;;;;0.77;0.40;;;8.10;97.10;;;;;;4197194;28;20431;-75
2022/04/24 10:25:43;;;;;;;0.50;0.50;;;8.10;96.40;;;;;;4196548;28;20467;-75
2022/04/24 10:27:47;;;;;;;0.63;0.47;;;8.10;96.40;;;;;;4209248;28;20489;-76
2022/04/24 10:30:00;;;;;;;1.33;0.90;;;8.10;96.20;;;;;;4194085;28;20194;-75
2022/04/24 10:32:02;;;;;;;0.60;0.60;;;8.00;96.60;;;;;;4206900;28;20183;-75
2022/04/24 10:34:06;;;;;;;0.50;0.50;;;8.00;97.30;;;;;;4201881;28;20195;-76
2022/04/24 10:36:13;;;;;;;0.40;0.40;;;8.10;97.90;;;;;;4206623;28;20789;-77
2022/04/24 10:38:14;;;;;;;0.40;0.40;;;8.20;97.10;;;;;;4203303;28;20446;-74